Time;durP1;ratioP1;P1;durP2;ratioP2;P2;SDS_P1;SDS_P2;PMS_P1;PMS_P2;Temp;Humidity;BMP_temperature;BMP_pressure;BME280_temperature;BME280_humidity;BME280_pressure;Samples;Min_cycle;Max_cycle;Signal;HPM_P1;HPM_P2
2021/10/28 00:12:16;;;;;;;1097.68;999.90;;;;;;;12.72;67.49;101850.00;693651;28;136326;-67
2021/10/28 00:12:42;;;;;;;1095.32;999.90;;;;;;;12.71;67.34;101845.59;693629;28;138537;-66
2021/10/28 00:13:08;;;;;;;1097.93;999.90;;;;;;;12.68;67.35;101845.91;693381;28;136437;-67
2021/10/28 00:13:32;;;;;;;1099.68;999.90;;;;;;;12.67;67.29;101845.06;694078;28;113553;-67
2021/10/28 00:13:55;;;;;;;1092.03;999.90;;;;;;;12.68;67.42;101845.91;694221;28;115708;-67
2021/10/28 00:14:19;;;;;;;1102.68;999.90;;;;;;;12.67;67.64;101849.66;695028;28;92447;-67
2021/10/28 00:14:42;;;;;;;1094.40;999.90;;;;;;;12.66;67.68;101850.66;695592;28;69176;-67
2021/10/28 00:15:07;;;;;;;1098.43;999.90;;;;;;;12.65;67.45;101849.81;694892;28;68817;-67
2021/10/28 00:15:31;;;;;;;1102.10;999.90;;;;;;;12.64;67.66;101844.56;693798;28;115101;-67
2021/10/28 00:15:56;;;;;;;1097.07;999.90;;;;;;;12.64;67.62;101844.56;693759;28;115947;-67
2021/10/28 00:16:21;;;;;;;1109.53;999.90;;;;;;;12.63;67.65;101851.81;694786;28;93360;-67
2021/10/28 00:16:44;;;;;;;1087.40;999.90;;;;;;;12.63;67.50;101849.13;693312;28;138152;-67
2021/10/28 00:17:10;;;;;;;1094.95;999.90;;;;;;;12.63;67.78;101846.41;696506;28;45238;-67
2021/10/28 00:17:44;;;;;;;1089.75;999.90;;;;;;;12.60;67.55;101847.59;693136;28;137918;-67
2021/10/28 00:18:11;;;;;;;1083.55;999.90;;;;;;;12.61;67.57;101845.72;693255;28;137287;-67
2021/10/28 00:18:40;;;;;;;1084.10;999.90;;;;;;;12.60;67.82;101847.59;692776;28;136291;-67
2021/10/28 00:19:03;;;;;;;1083.65;999.90;;;;;;;12.61;67.75;101854.69;693205;28;137877;-67
2021/10/28 00:19:26;;;;;;;1094.03;999.90;;;;;;;12.60;67.61;101846.72;695628;28;69457;-67
2021/10/28 00:19:47;;;;;;;1101.30;999.90;;;;;;;12.60;67.52;101844.03;695488;28;69240;-67
2021/10/28 00:20:09;;;;;;;1099.55;999.90;;;;;;;12.59;67.84;101845.88;696645;28;23445;-67
2021/10/28 00:20:34;;;;;;;1104.03;999.90;;;;;;;12.59;67.88;101848.59;695857;28;69379;-67
2021/10/28 00:20:56;;;;;;;1098.35;999.90;;;;;;;12.58;67.63;101846.88;694168;28;92244;-67
2021/10/28 00:21:17;;;;;;;1098.75;999.90;;;;;;;12.57;67.61;101847.94;696471;28;44893;-67
2021/10/28 00:21:39;;;;;;;1096.13;999.90;;;;;;;12.56;67.83;101848.94;697132;28;23414;-67
2021/10/28 00:22:01;;;;;;;1101.90;999.90;;;;;;;12.57;67.70;101847.94;696441;28;46390;-67
2021/10/28 00:22:27;;;;;;;1097.63;999.90;;;;;;;12.56;67.88;101842.66;695742;28;60231;-67
2021/10/28 00:22:48;;;;;;;1101.63;999.90;;;;;;;12.55;67.71;101844.50;697058;28;22424;-67
2021/10/28 00:23:09;;;;;;;1091.60;999.90;;;;;;;12.56;67.77;101843.50;697038;28;23472;-67
2021/10/28 00:23:32;;;;;;;1106.18;999.90;;;;;;;12.56;67.69;101846.22;696753;28;46319;-67
2021/10/28 00:23:59;;;;;;;1107.00;999.90;;;;;;;12.54;67.54;101842.81;696827;28;45284;-67
2021/10/28 00:24:20;;;;;;;1104.65;999.90;;;;;;;12.55;67.70;101849.94;693563;28;137729;-67
2021/10/28 00:24:41;;;;;;;1099.80;999.90;;;;;;;12.54;67.66;101850.09;698110;28;22465;-67
2021/10/28 00:25:03;;;;;;;1101.47;999.90;;;;;;;12.53;67.93;101846.53;698900;28;21503;-67
2021/10/28 00:25:29;;;;;;;1098.75;999.90;;;;;;;12.53;67.93;101854.66;699127;28;59997;-67
2021/10/28 00:25:50;;;;;;;1097.03;999.90;;;;;;;12.53;67.69;101845.69;699713;28;45261;-67
2021/10/28 00:26:12;;;;;;;1100.63;999.90;;;;;;;12.50;67.61;101840.59;700750;28;21526;-67
2021/10/28 00:26:34;;;;;;;1109.07;999.90;;;;;;;12.48;67.81;101843.47;699258;28;44372;-67
2021/10/28 00:26:56;;;;;;;1099.72;999.90;;;;;;;12.47;67.51;101846.34;699944;28;1802;-67
2021/10/28 00:27:18;;;;;;;1093.15;999.90;;;;;;;12.44;67.77;101839.38;696259;28;67463;-67
2021/10/28 00:27:39;;;;;;;1093.43;999.90;;;;;;;12.47;67.85;101849.91;697270;28;21518;-67
2021/10/28 00:28:01;;;;;;;1090.07;999.90;;;;;;;12.47;67.78;101846.34;697425;28;21571;-67
2021/10/28 00:28:22;;;;;;;1081.00;999.90;;;;;;;12.46;67.76;101842.81;696473;28;46293;-67
2021/10/28 00:28:45;;;;;;;1088.43;999.90;;;;;;;12.46;67.81;101844.63;698308;28;24142;-67
2021/10/28 00:29:08;;;;;;;1084.07;999.90;;;;;;;12.46;67.79;101848.22;695489;28;71536;-67
2021/10/28 00:29:31;;;;;;;1079.10;999.90;;;;;;;12.46;68.09;101847.34;695875;28;69429;-67
2021/10/28 00:29:52;;;;;;;1093.90;999.90;;;;;;;12.46;67.75;101842.81;695855;28;70314;-67
2021/10/28 00:30:16;;;;;;;1090.95;999.90;;;;;;;12.47;67.81;101849.06;696851;28;20964;-67
2021/10/28 00:30:38;;;;;;;1097.90;999.90;;;;;;;12.47;67.76;101849.06;693761;28;113523;-67
2021/10/28 00:30:59;;;;;;;1102.65;999.90;;;;;;;12.44;67.74;101842.97;697083;28;22442;-67
2021/10/28 00:31:20;;;;;;;1102.65;999.90;;;;;;;12.43;67.70;101848.53;698078;28;21538;-67
2021/10/28 00:31:43;;;;;;;1104.88;999.90;;;;;;;12.43;67.92;101848.53;697700;28;23485;-67
2021/10/28 00:32:06;;;;;;;1108.88;999.90;;;;;;;12.41;67.95;101851.41;695777;28;69422;-67
2021/10/28 00:32:28;;;;;;;1116.53;999.90;;;;;;;12.41;67.93;101854.13;696339;28;67257;-67
2021/10/28 00:32:49;;;;;;;1113.70;999.90;;;;;;;12.40;67.88;101851.56;697606;28;46308;-67
2021/10/28 00:33:11;;;;;;;1103.38;999.90;;;;;;;12.39;68.04;101845.28;697485;28;22412;-67
2021/10/28 00:33:33;;;;;;;1104.00;999.90;;;;;;;12.39;67.88;101849.88;697203;28;45346;-67
2021/10/28 00:33:55;;;;;;;1111.18;999.90;;;;;;;12.37;67.69;101851.91;697332;28;44449;-67
2021/10/28 00:34:17;;;;;;;1112.70;999.90;;;;;;;12.36;67.67;101852.91;697346;28;46393;-67
2021/10/28 00:34:39;;;;;;;1110.75;999.90;;;;;;;12.35;67.85;101852.06;697159;28;45382;-67
2021/10/28 00:35:05;;;;;;;1110.75;999.90;;;;;;;12.33;67.88;101851.34;696434;28;34980;-66
2021/10/28 00:35:26;;;;;;;1109.18;999.90;;;;;;;12.33;68.10;101855.94;695798;28;69420;-67
2021/10/28 00:35:47;;;;;;;1111.57;999.90;;;;;;;12.32;67.97;101851.50;697399;28;22451;-67
2021/10/28 00:36:08;;;;;;;1111.70;999.90;;;;;;;12.34;68.04;101852.22;697627;28;21293;-67
2021/10/28 00:36:30;;;;;;;1103.93;999.90;;;;;;;12.32;67.86;101846.97;696957;28;23530;-67
2021/10/28 00:36:52;;;;;;;1098.10;999.90;;;;;;;12.33;67.96;101848.63;697195;28;46252;-67
2021/10/28 00:37:13;;;;;;;1105.10;999.90;;;;;;;12.34;68.21;101850.34;697327;28;45262;-67
2021/10/28 00:37:36;;;;;;;1105.65;999.90;;;;;;;12.31;67.89;101845.25;698055;28;21530;-67
2021/10/28 00:37:58;;;;;;;1099.88;999.90;;;;;;;12.30;67.97;101843.53;696010;28;69491;-67
2021/10/28 00:38:20;;;;;;;1099.13;999.90;;;;;;;12.29;68.06;101844.56;696304;28;46227;-67
2021/10/28 00:38:41;;;;;;;1109.60;999.90;;;;;;;12.26;67.95;101843.03;698055;28;22186;-67
2021/10/28 00:39:03;;;;;;;1098.63;999.90;;;;;;;12.25;68.07;101844.03;696689;28;46321;-67
2021/10/28 00:39:25;;;;;;;1099.65;999.90;;;;;;;12.25;68.19;101843.19;697223;28;46345;-67
2021/10/28 00:39:46;;;;;;;1100.95;999.90;;;;;;;12.23;67.90;101846.06;697442;28;46533;-67
2021/10/28 00:40:09;;;;;;;1104.25;999.90;;;;;;;12.22;68.23;101846.22;697322;28;22478;-67
2021/10/28 00:40:31;;;;;;;1100.38;999.90;;;;;;;12.20;67.95;101845.53;696308;28;69367;-67
2021/10/28 00:40:52;;;;;;;1098.45;999.90;;;;;;;12.18;68.18;101845.69;697290;28;21511;-67
2021/10/28 00:41:18;;;;;;;1110.70;999.90;;;;;;;12.16;68.15;101852.28;693975;28;92083;-67
2021/10/28 00:41:39;;;;;;;1100.35;999.90;;;;;;;12.15;68.38;101845.19;694437;28;92238;-67
2021/10/28 00:42:01;;;;;;;1110.20;999.90;;;;;;;12.15;68.46;101851.44;697830;28;23380;-67
2021/10/28 00:42:23;;;;;;;1108.85;999.90;;;;;;;12.14;68.10;101848.88;695866;28;69398;-67
2021/10/28 00:42:45;;;;;;;1112.57;999.90;;;;;;;12.12;68.16;101849.06;697932;28;23390;-67
2021/10/28 00:43:06;;;;;;;1110.47;999.90;;;;;;;12.11;68.25;101850.03;696692;28;45234;-67
2021/10/28 00:43:29;;;;;;;1102.80;999.90;;;;;;;12.10;68.54;101850.22;698502;28;1478;-67
2021/10/28 00:43:52;;;;;;;1111.85;999.90;;;;;;;12.09;68.55;101849.38;698120;28;22638;-67
2021/10/28 00:44:16;;;;;;;1106.03;999.90;;;;;;;12.06;68.44;101847.81;698653;28;16130;-67
2021/10/28 00:44:38;;;;;;;1109.82;999.90;;;;;;;12.07;68.60;101845.97;696325;28;69405;-67
2021/10/28 00:44:59;;;;;;;1105.47;999.90;;;;;;;12.05;68.50;101850.69;695986;28;46279;-67
2021/10/28 00:45:23;;;;;;;1104.05;999.90;;;;;;;12.07;68.65;101848.69;697056;28;23483;-67
2021/10/28 00:45:44;;;;;;;1102.30;999.90;;;;;;;12.06;68.37;101852.38;695672;28;92256;-67
2021/10/28 00:46:06;;;;;;;1108.65;999.90;;;;;;;12.04;68.67;101849.84;697363;28;20690;-67
2021/10/28 00:46:31;;;;;;;1100.75;999.90;;;;;;;12.01;68.46;101846.63;696741;28;46471;-67
2021/10/28 00:46:52;;;;;;;1108.30;999.90;;;;;;;12.01;68.57;101852.88;695386;28;91820;-67
2021/10/28 00:47:14;;;;;;;1106.68;999.90;;;;;;;12.00;68.57;101848.44;697981;28;14382;-67
2021/10/28 00:47:38;;;;;;;1104.28;999.90;;;;;;;12.00;68.59;101853.03;695086;28;92895;-67
2021/10/28 00:48:01;;;;;;;1103.40;999.90;;;;;;;11.98;68.72;101847.78;692417;28;92066;-67
2021/10/28 00:48:22;;;;;;;1110.95;999.90;;;;;;;11.97;68.89;101846.06;691987;28;90805;-67
2021/10/28 00:48:45;;;;;;;1109.35;999.90;;;;;;;11.98;68.53;101852.34;696433;28;21504;-67
2021/10/28 00:49:09;;;;;;;1112.18;999.90;;;;;;;11.97;68.78;101846.06;695862;28;69215;-67
2021/10/28 00:49:31;;;;;;;1105.50;999.90;;;;;;;11.97;68.69;101853.34;695145;28;92621;-67
2021/10/28 00:49:52;;;;;;;1110.55;999.90;;;;;;;11.97;68.63;101850.63;697457;28;23400;-67
2021/10/28 00:50:14;;;;;;;1108.38;999.90;;;;;;;11.97;68.57;101848.78;697955;28;22472;-67
2021/10/28 00:50:35;;;;;;;1105.45;999.90;;;;;;;11.96;68.74;101855.22;697146;28;45244;-67
2021/10/28 00:50:56;;;;;;;1106.22;999.90;;;;;;;11.96;68.79;101849.81;696489;28;46287;-67
2021/10/28 00:51:19;;;;;;;1114.10;999.90;;;;;;;11.95;68.60;101845.38;697648;28;21538;-66
2021/10/28 00:51:42;;;;;;;1110.80;999.90;;;;;;;11.94;68.69;101843.66;695685;28;70312;-67
2021/10/28 00:52:04;;;;;;;1109.07;999.90;;;;;;;11.95;68.85;101852.66;696863;28;47850;-67
2021/10/28 00:52:25;;;;;;;1104.07;999.90;;;;;;;11.92;68.86;101843.00;697245;28;46353;-67
2021/10/28 00:52:46;;;;;;;1105.15;999.90;;;;;;;11.93;68.69;101847.41;698362;28;21569;-67
2021/10/28 00:53:07;;;;;;;1107.18;999.90;;;;;;;11.93;68.97;101846.53;697816;28;22237;-67
2021/10/28 00:53:29;;;;;;;1107.60;999.90;;;;;;;11.90;68.71;101840.41;696977;28;45275;-67
2021/10/28 00:53:51;;;;;;;1107.45;999.90;;;;;;;11.89;68.88;101844.13;697141;28;46363;-66
2021/10/28 00:54:13;;;;;;;1105.93;999.90;;;;;;;11.92;68.94;101842.13;698150;28;21229;-66
2021/10/28 00:54:34;;;;;;;1102.80;999.90;;;;;;;11.90;68.65;101844.97;696396;28;69869;-66
2021/10/28 00:54:56;;;;;;;1105.32;999.90;;;;;;;11.87;68.71;101838.03;697375;28;22385;-67
2021/10/28 00:55:18;;;;;;;1109.93;999.90;;;;;;;11.87;68.71;101846.16;697986;28;21297;-67
2021/10/28 00:55:39;;;;;;;1113.05;999.90;;;;;;;11.87;68.68;101853.44;697169;28;46545;-67
2021/10/28 00:56:02;;;;;;;1114.50;999.90;;;;;;;11.87;68.72;101842.59;697367;28;21541;-66
2021/10/28 00:56:24;;;;;;;1106.03;999.90;;;;;;;11.85;68.84;101844.63;695624;28;90307;-67
2021/10/28 00:56:48;;;;;;;1114.95;999.90;;;;;;;11.84;68.74;101842.91;696827;28;69541;-67
2021/10/28 00:57:10;;;;;;;1112.43;999.90;;;;;;;11.85;69.13;101842.75;697024;28;44173;-67
2021/10/28 00:57:31;;;;;;;1110.05;999.90;;;;;;;11.84;69.16;101838.34;696833;28;46573;-66
2021/10/28 00:57:53;;;;;;;1112.95;999.90;;;;;;;11.81;68.99;101835.09;696773;28;46545;-67
2021/10/28 00:58:20;;;;;;;1104.43;999.90;;;;;;;11.82;68.83;101839.53;696738;28;46414;-66
2021/10/28 00:58:41;;;;;;;1104.38;999.90;;;;;;;11.82;69.13;101844.94;693770;28;137534;-66
2021/10/28 00:59:02;;;;;;;1099.13;999.90;;;;;;;11.82;68.92;101839.53;697355;28;22299;-67
2021/10/28 00:59:24;;;;;;;1093.65;999.90;;;;;;;11.81;68.97;101843.22;697596;28;21510;-67
2021/10/28 00:59:47;;;;;;;1099.10;999.90;;;;;;;11.78;69.18;101841.69;697792;28;22408;-66
2021/10/28 01:00:09;;;;;;;1109.03;999.90;;;;;;;11.80;69.05;101839.69;694727;28;92100;-66
2021/10/28 01:00:30;;;;;;;1112.78;999.90;;;;;;;11.80;69.01;101845.09;696878;28;45262;-66
2021/10/28 01:00:51;;;;;;;1116.85;999.90;;;;;;;11.80;69.06;101838.81;697915;28;21529;-67
2021/10/28 01:01:14;;;;;;;1113.28;999.90;;;;;;;11.79;69.01;101839.84;699096;28;1000;-67
2021/10/28 01:01:35;;;;;;;1103.15;999.90;;;;;;;11.80;69.12;101846.94;697194;28;9374;-67
2021/10/28 01:01:56;;;;;;;1110.10;999.90;;;;;;;11.79;69.05;101837.97;696631;28;21526;-66
2021/10/28 01:02:18;;;;;;;1106.38;999.90;;;;;;;11.78;68.86;101840.84;695628;28;44445;-67
2021/10/28 01:02:40;;;;;;;1102.65;999.90;;;;;;;11.77;69.19;101839.13;696619;28;21316;-67
2021/10/28 01:03:02;;;;;;;1110.70;999.90;;;;;;;11.77;69.06;101840.00;696019;28;46375;-66
2021/10/28 01:03:23;;;;;;;1113.05;999.90;;;;;;;11.77;68.90;101841.84;696372;28;46359;-67
2021/10/28 01:03:44;;;;;;;1110.75;999.90;;;;;;;11.75;69.04;101842.00;698411;28;21512;-67
2021/10/28 01:04:07;;;;;;;1111.35;999.90;;;;;;;11.76;68.93;101841.00;696889;28;46270;-67
2021/10/28 01:04:28;;;;;;;1108.80;999.90;;;;;;;11.77;69.00;101839.13;696629;28;69398;-67
2021/10/28 01:04:49;;;;;;;1102.10;999.90;;;;;;;11.75;69.22;101841.16;698045;28;22363;-66
2021/10/28 01:05:10;;;;;;;1107.05;999.90;;;;;;;11.72;69.12;101834.19;697641;28;21548;-66
2021/10/28 01:05:33;;;;;;;1107.43;999.90;;;;;;;11.72;69.29;101837.75;698234;28;22468;-67
2021/10/28 01:05:54;;;;;;;1106.30;999.90;;;;;;;11.71;69.17;101832.50;696389;28;44380;-66
2021/10/28 01:06:16;;;;;;;1105.55;999.90;;;;;;;11.72;69.19;101839.59;697925;28;23400;-67
2021/10/28 01:06:38;;;;;;;1113.45;999.90;;;;;;;11.72;69.22;101837.75;697115;28;45213;-67
2021/10/28 01:07:00;;;;;;;1113.00;999.90;;;;;;;11.71;69.26;101846.03;697106;28;43702;-66
2021/10/28 01:07:21;;;;;;;1112.17;999.90;;;;;;;11.71;69.31;101843.34;696367;28;69463;-66
2021/10/28 01:07:43;;;;;;;1104.57;999.90;;;;;;;11.70;69.11;101847.03;696756;28;45221;-67
2021/10/28 01:08:04;;;;;;;1111.07;999.90;;;;;;;11.71;69.25;101840.63;696769;28;46312;-67
2021/10/28 01:08:26;;;;;;;1107.13;999.90;;;;;;;11.70;68.97;101842.47;697993;28;21207;-67
2021/10/28 01:08:48;;;;;;;1098.38;999.90;;;;;;;11.70;69.21;101836.22;698362;28;22416;-66
2021/10/28 01:09:09;;;;;;;1099.70;999.90;;;;;;;11.71;68.95;101843.34;696653;28;46332;-66
2021/10/28 01:09:30;;;;;;;1109.00;999.90;;;;;;;11.69;68.99;101840.78;697641;28;23536;-66
2021/10/28 01:09:51;;;;;;;1113.93;999.90;;;;;;;11.67;69.25;101834.66;697399;28;23721;-66
2021/10/28 01:10:13;;;;;;;1114.88;999.90;;;;;;;11.69;69.18;101840.78;696361;28;45242;-66
2021/10/28 01:10:35;;;;;;;1114.18;999.90;;;;;;;11.68;68.99;101840.94;697053;28;44390;-67
2021/10/28 01:10:56;;;;;;;1106.20;999.90;;;;;;;11.68;69.15;101840.94;697518;28;21530;-67
2021/10/28 01:11:18;;;;;;;1112.95;999.90;;;;;;;11.67;69.18;101840.06;697987;28;22332;-67
2021/10/28 01:11:40;;;;;;;1108.45;999.90;;;;;;;11.68;69.14;101835.53;696925;28;45237;-66
2021/10/28 01:12:02;;;;;;;1102.70;999.90;;;;;;;11.67;69.03;101839.22;697048;28;44381;-67
2021/10/28 01:12:26;;;;;;;1105.72;999.90;;;;;;;11.66;69.01;101835.69;696934;28;44398;-66
2021/10/28 01:12:47;;;;;;;1114.25;999.90;;;;;;;11.66;69.35;101843.81;694689;28;114943;-66
2021/10/28 01:13:09;;;;;;;1111.75;999.90;;;;;;;11.65;69.22;101838.53;697954;28;21522;-67
2021/10/28 01:13:31;;;;;;;1100.95;999.90;;;;;;;11.65;69.21;101843.97;697925;28;22365;-67
2021/10/28 01:13:52;;;;;;;1100.40;999.90;;;;;;;11.64;69.41;101831.44;697416;28;45245;-67
2021/10/28 01:14:13;;;;;;;1100.43;999.90;;;;;;;11.65;69.45;101833.13;697703;28;23169;-67
2021/10/28 01:14:40;;;;;;;1104.30;999.90;;;;;;;11.65;69.08;101836.69;697813;28;23468;-67
2021/10/28 01:15:12;;;;;;;1095.95;999.90;;;;;;;11.62;69.22;101834.28;692711;28;136371;-67
2021/10/28 01:15:33;;;;;;;1096.97;999.90;;;;;;;11.63;69.37;101837.84;693890;28;137700;-66
2021/10/28 01:15:55;;;;;;;1093.65;999.90;;;;;;;11.63;69.19;101841.41;697549;28;22381;-66
2021/10/28 01:16:19;;;;;;;1089.25;999.90;;;;;;;11.63;69.40;101837.84;696612;28;45296;-67
2021/10/28 01:16:41;;;;;;;1092.97;999.90;;;;;;;11.62;69.43;101834.28;694333;28;114783;-66
2021/10/28 01:17:03;;;;;;;1101.13;999.90;;;;;;;11.63;69.17;101848.66;697214;28;44387;-67
2021/10/28 01:17:24;;;;;;;1103.65;999.90;;;;;;;11.63;69.14;101832.41;698119;28;21539;-67
2021/10/28 01:17:45;;;;;;;1105.57;999.90;;;;;;;11.64;69.33;101839.53;697085;28;23487;-66
2021/10/28 01:18:10;;;;;;;1108.10;999.90;;;;;;;11.63;69.44;101837.84;697755;28;22393;-67
2021/10/28 01:18:33;;;;;;;1116.70;999.90;;;;;;;11.62;69.29;101838.84;694051;28;115120;-66
2021/10/28 01:18:54;;;;;;;1108.38;999.90;;;;;;;11.61;69.35;101835.28;695886;28;69357;-66
2021/10/28 01:19:15;;;;;;;1099.07;999.90;;;;;;;11.61;69.28;101840.69;697029;28;46015;-66
2021/10/28 01:19:37;;;;;;;1109.43;999.90;;;;;;;11.61;69.26;101839.84;697831;28;22451;-66
2021/10/28 01:20:00;;;;;;;1106.75;999.90;;;;;;;11.60;69.51;101839.00;696762;28;21510;-67
2021/10/28 01:20:21;;;;;;;1106.30;999.90;;;;;;;11.61;69.46;101837.16;695448;28;90326;-67
2021/10/28 01:20:44;;;;;;;1111.88;999.90;;;;;;;11.59;69.55;101841.88;698222;28;22277;-67
2021/10/28 01:21:07;;;;;;;1112.55;999.90;;;;;;;11.59;69.60;101837.31;695770;28;68905;-67
2021/10/28 01:21:29;;;;;;;1113.43;999.90;;;;;;;11.59;69.35;101836.47;696922;28;44370;-67
2021/10/28 01:21:50;;;;;;;1101.18;999.90;;;;;;;11.58;69.33;101840.16;697080;28;43948;-67
2021/10/28 01:22:11;;;;;;;1104.82;999.90;;;;;;;11.56;69.43;101836.78;698264;28;21536;-66
2021/10/28 01:22:32;;;;;;;1097.40;999.90;;;;;;;11.54;69.56;101836.94;697713;28;22335;-66
2021/10/28 01:22:54;;;;;;;1090.53;999.90;;;;;;;11.58;69.29;101834.75;696510;28;46176;-66
2021/10/28 01:23:20;;;;;;;1092.82;999.90;;;;;;;11.57;69.64;101842.03;697743;28;23393;-66
2021/10/28 01:23:43;;;;;;;1091.93;999.90;;;;;;;11.56;69.58;101836.78;693642;28;136404;-66
2021/10/28 01:24:04;;;;;;;1094.18;999.90;;;;;;;11.56;69.32;101842.19;695609;28;91870;-67
2021/10/28 01:24:26;;;;;;;1103.70;999.90;;;;;;;11.54;69.46;101836.94;697846;28;23531;-66
2021/10/28 01:24:47;;;;;;;1106.93;999.90;;;;;;;11.53;69.52;101841.47;697284;28;46207;-66
2021/10/28 01:25:09;;;;;;;1108.95;999.90;;;;;;;11.53;69.61;101833.34;697699;28;22380;-66
2021/10/28 01:25:30;;;;;;;1107.20;999.90;;;;;;;11.53;69.61;101833.34;697465;28;22369;-67
2021/10/28 01:25:53;;;;;;;1104.70;999.90;;;;;;;11.52;69.29;101830.84;697570;28;22402;-66
2021/10/28 01:26:16;;;;;;;1100.30;999.90;;;;;;;11.50;69.75;101836.41;695819;28;93282;-66
2021/10/28 01:26:37;;;;;;;1096.40;999.90;;;;;;;11.51;69.56;101829.97;696796;28;44386;-67
2021/10/28 01:27:03;;;;;;;1093.53;999.90;;;;;;;11.49;69.66;101831.16;698062;28;21532;-67
2021/10/28 01:27:25;;;;;;;1098.45;999.90;;;;;;;11.49;69.59;101834.69;694040;28;137156;-66
2021/10/28 01:27:46;;;;;;;1098.63;999.90;;;;;;;11.49;69.43;101831.16;696895;28;44367;-67
2021/10/28 01:28:15;;;;;;;1099.38;999.90;;;;;;;11.47;69.56;101839.44;697494;28;22384;-66
2021/10/28 01:28:39;;;;;;;1098.80;999.90;;;;;;;11.44;69.52;101823.50;693856;28;137570;-66
2021/10/28 01:29:02;;;;;;;1099.40;999.90;;;;;;;11.47;69.83;101834.00;694928;28;92281;-67
2021/10/28 01:29:24;;;;;;;1094.93;999.90;;;;;;;11.45;69.78;101830.59;695735;28;90837;-66
2021/10/28 01:29:46;;;;;;;1097.07;999.90;;;;;;;11.46;69.55;101839.56;698391;28;20881;-66
2021/10/28 01:30:07;;;;;;;1104.85;999.90;;;;;;;11.45;69.56;101827.88;695747;28;46321;-66
2021/10/28 01:30:31;;;;;;;1107.80;999.90;;;;;;;11.46;69.79;101834.16;697492;28;22502;-67
2021/10/28 01:30:54;;;;;;;1099.95;999.90;;;;;;;11.48;69.84;101826.75;695130;28;90328;-67
2021/10/28 01:31:16;;;;;;;1100.13;999.90;;;;;;;11.48;69.83;101830.28;696516;28;67450;-66
2021/10/28 01:31:37;;;;;;;1097.35;999.90;;;;;;;11.48;69.71;101833.00;696719;28;46394;-67
2021/10/28 01:31:58;;;;;;;1097.95;999.90;;;;;;;11.48;69.54;101834.84;697659;28;21238;-67
2021/10/28 01:32:20;;;;;;;1098.68;999.90;;;;;;;11.46;69.51;101832.31;696936;28;45218;-67
2021/10/28 01:32:42;;;;;;;1106.07;999.90;;;;;;;11.48;69.59;101834.84;698311;28;22390;-67
2021/10/28 01:33:03;;;;;;;1111.93;999.90;;;;;;;11.48;69.84;101832.16;697192;28;44375;-67
2021/10/28 01:33:25;;;;;;;1114.70;999.90;;;;;;;11.48;69.70;101834.84;697642;28;23571;-67
2021/10/28 01:33:46;;;;;;;1106.93;999.90;;;;;;;11.48;69.68;101832.16;697134;28;45233;-67
2021/10/28 01:34:08;;;;;;;1101.50;999.90;;;;;;;11.46;69.45;101831.47;697545;28;22385;-66
2021/10/28 01:34:29;;;;;;;1106.05;999.90;;;;;;;11.43;69.51;101831.78;697007;28;46109;-67
2021/10/28 01:34:50;;;;;;;1103.82;999.90;;;;;;;11.46;69.83;101832.31;698077;28;21536;-67
2021/10/28 01:35:13;;;;;;;1109.82;999.90;;;;;;;11.45;69.69;101833.28;696667;28;23443;-67
2021/10/28 01:35:35;;;;;;;1105.25;999.90;;;;;;;11.44;69.81;101828.91;695855;28;69417;-66
2021/10/28 01:35:56;;;;;;;1105.80;999.90;;;;;;;11.42;69.74;101832.78;695901;28;46310;-66
2021/10/28 01:36:17;;;;;;;1108.57;999.90;;;;;;;11.44;69.51;101837.03;697753;28;21502;-67
2021/10/28 01:36:39;;;;;;;1103.50;999.90;;;;;;;11.43;69.75;101832.63;697056;28;24714;-67
2021/10/28 01:37:01;;;;;;;1096.20;999.90;;;;;;;11.45;69.77;101835.16;696382;28;46352;-67
2021/10/28 01:37:22;;;;;;;1100.82;999.90;;;;;;;11.47;69.66;101842.13;696363;28;46309;-67
2021/10/28 01:37:44;;;;;;;1099.53;999.90;;;;;;;11.49;69.82;101841.97;697430;28;22403;-67
2021/10/28 01:38:05;;;;;;;1101.10;999.90;;;;;;;11.47;69.89;101836.72;697109;28;45245;-67
2021/10/28 01:38:27;;;;;;;1101.40;999.90;;;;;;;11.47;69.84;101836.72;698539;28;1183;-67
2021/10/28 01:38:49;;;;;;;1098.63;999.90;;;;;;;11.47;69.78;101835.84;697143;28;44365;-67
2021/10/28 01:39:14;;;;;;;1093.95;999.90;;;;;;;11.46;69.58;101835.00;697261;28;44389;-67
2021/10/28 01:39:35;;;;;;;1092.82;999.90;;;;;;;11.47;69.56;101843.97;694674;28;115969;-66
2021/10/28 01:39:57;;;;;;;1092.50;999.90;;;;;;;11.48;69.39;101840.25;696964;28;23423;-66
2021/10/28 01:40:21;;;;;;;1095.20;999.90;;;;;;;11.47;69.63;101835.84;696994;28;45269;-67
2021/10/28 01:40:53;;;;;;;1095.50;999.90;;;;;;;11.48;69.46;101842.97;695723;28;60258;-67
2021/10/28 01:41:15;;;;;;;1095.60;999.90;;;;;;;11.46;69.68;101840.41;696302;28;67319;-66
2021/10/28 01:41:36;;;;;;;1094.75;999.90;;;;;;;11.45;69.44;101840.56;696413;28;47687;-67
2021/10/28 01:41:57;;;;;;;1092.68;999.90;;;;;;;11.45;69.61;101837.88;696896;28;21541;-66
2021/10/28 01:42:18;;;;;;;1098.80;999.90;;;;;;;11.45;69.44;101840.56;696535;28;23255;-66
2021/10/28 01:42:46;;;;;;;1106.07;999.90;;;;;;;11.44;69.48;101831.63;698552;28;917;-67
2021/10/28 01:43:08;;;;;;;1112.65;999.90;;;;;;;11.43;69.38;101842.59;693568;28;137838;-67
2021/10/28 01:43:30;;;;;;;1113.95;999.90;;;;;;;11.41;69.54;101837.34;696742;28;46337;-66
2021/10/28 01:43:53;;;;;;;1114.65;999.90;;;;;;;11.40;69.54;101841.03;697414;28;46454;-66
2021/10/28 01:44:15;;;;;;;1105.35;999.90;;;;;;;11.40;69.68;101837.50;696503;28;69458;-67
2021/10/28 01:44:36;;;;;;;1096.88;999.90;;;;;;;11.39;69.67;101833.91;697484;28;46276;-66
2021/10/28 01:44:59;;;;;;;1109.75;999.90;;;;;;;11.39;69.66;101835.78;696955;28;23267;-67
2021/10/28 01:45:20;;;;;;;1111.50;999.90;;;;;;;11.39;69.60;101835.78;695928;28;66808;-67
2021/10/28 01:45:41;;;;;;;1099.30;999.90;;;;;;;11.38;69.78;101839.47;698092;28;21536;-67
2021/10/28 01:46:05;;;;;;;1098.50;999.90;;;;;;;11.36;69.73;101839.63;697691;28;22385;-66
2021/10/28 01:46:27;;;;;;;1101.68;999.90;;;;;;;11.35;69.79;101835.25;697216;28;37452;-67
2021/10/28 01:46:48;;;;;;;1094.15;999.90;;;;;;;11.34;70.04;101842.50;697953;28;22455;-67
2021/10/28 01:47:13;;;;;;;1091.07;999.90;;;;;;;11.33;69.89;101834.53;697845;28;22434;-67
2021/10/28 01:47:35;;;;;;;1084.22;999.90;;;;;;;11.32;69.95;101836.41;694516;28;115109;-67
2021/10/28 01:47:56;;;;;;;1080.38;999.90;;;;;;;11.36;69.92;101836.94;696409;28;46891;-67
2021/10/28 01:48:18;;;;;;;1096.22;999.90;;;;;;;11.38;70.01;101840.34;697788;28;23418;-67
2021/10/28 01:48:40;;;;;;;1103.30;999.90;;;;;;;11.35;70.15;101835.25;697298;28;46394;-67
2021/10/28 01:49:02;;;;;;;1105.70;999.90;;;;;;;11.36;69.78;101832.41;696711;28;46309;-67
2021/10/28 01:49:25;;;;;;;1111.38;999.90;;;;;;;11.36;69.81;101840.50;697071;28;45237;-66
2021/10/28 01:49:46;;;;;;;1110.30;999.90;;;;;;;11.38;69.80;101836.78;696194;28;69400;-67
2021/10/28 01:50:08;;;;;;;1104.93;999.90;;;;;;;11.38;70.06;101839.47;696447;28;21515;-67
2021/10/28 01:50:34;;;;;;;1111.35;999.90;;;;;;;11.36;69.76;101835.09;697445;28;14101;-67
2021/10/28 01:50:55;;;;;;;1112.73;999.90;;;;;;;11.34;69.95;101828.13;694788;28;90691;-67
2021/10/28 01:51:19;;;;;;;1117.22;999.90;;;;;;;11.35;69.69;101837.97;697009;28;46335;-67
2021/10/28 01:51:40;;;;;;;1116.97;999.90;;;;;;;11.34;69.65;101836.25;695003;28;90746;-67